sensor_id;sensor_type;location;lat;lon;timestamp;temperature;humidity
24468;DHT22;12634;50.852;5.676;2023-06-10T00:02:01;17.90;99.90
24468;DHT22;12634;50.852;5.676;2023-06-10T00:04:29;17.90;99.90
24468;DHT22;12634;50.852;5.676;2023-06-10T00:06:56;17.90;99.90
24468;DHT22;12634;50.852;5.676;2023-06-10T00:09:23;18.00;99.90
24468;DHT22;12634;50.852;5.676;2023-06-10T00:11:52;18.20;99.90
24468;DHT22;12634;50.852;5.676;2023-06-10T00:14:20;17.90;99.90
24468;DHT22;12634;50.852;5.676;2023-06-10T00:16:47;17.90;99.90
24468;DHT22;12634;50.852;5.676;2023-06-10T00:19:15;18.10;99.90
24468;DHT22;12634;50.852;5.676;2023-06-10T00:21:44;17.90;99.90
24468;DHT22;12634;50.852;5.676;2023-06-10T00:24:11;18.20;99.90
24468;DHT22;12634;50.852;5.676;2023-06-10T00:26:38;18.10;99.90
24468;DHT22;12634;50.852;5.676;2023-06-10T00:29:08;17.90;99.90
24468;DHT22;12634;50.852;5.676;2023-06-10T00:31:36;17.80;99.90
24468;DHT22;12634;50.852;5.676;2023-06-10T00:34:04;17.70;99.90
24468;DHT22;12634;50.852;5.676;2023-06-10T00:36:31;17.70;99.90
24468;DHT22;12634;50.852;5.676;2023-06-10T00:38:58;17.70;99.90
24468;DHT22;12634;50.852;5.676;2023-06-10T00:41:25;17.60;99.90
24468;DHT22;12634;50.852;5.676;2023-06-10T00:43:53;17.40;99.90
24468;DHT22;12634;50.852;5.676;2023-06-10T00:46:22;17.40;99.90
24468;DHT22;12634;50.852;5.676;2023-06-10T00:48:50;17.50;99.90
24468;DHT22;12634;50.852;5.676;2023-06-10T00:51:17;17.60;99.90
24468;DHT22;12634;50.852;5.676;2023-06-10T00:53:45;17.50;99.90
24468;DHT22;12634;50.852;5.676;2023-06-10T00:56:13;17.50;99.90
24468;DHT22;12634;50.852;5.676;2023-06-10T00:58:41;17.40;99.90
24468;DHT22;12634;50.852;5.676;2023-06-10T01:01:08;17.40;99.90
24468;DHT22;12634;50.852;5.676;2023-06-10T01:03:39;17.40;99.90
24468;DHT22;12634;50.852;5.676;2023-06-10T01:06:19;17.30;99.90
24468;DHT22;12634;50.852;5.676;2023-06-10T01:08:51;17.20;99.90
24468;DHT22;12634;50.852;5.676;2023-06-10T01:11:23;17.20;99.90
24468;DHT22;12634;50.852;5.676;2023-06-10T01:13:54;17.00;99.90
24468;DHT22;12634;50.852;5.676;2023-06-10T01:16:22;17.00;99.90
24468;DHT22;12634;50.852;5.676;2023-06-10T01:18:52;16.80;99.90
24468;DHT22;12634;50.852;5.676;2023-06-10T01:21:22;16.80;99.90
24468;DHT22;12634;50.852;5.676;2023-06-10T01:23:51;16.60;99.90
24468;DHT22;12634;50.852;5.676;2023-06-10T01:26:20;16.70;99.90
24468;DHT22;12634;50.852;5.676;2023-06-10T01:28:51;16.70;99.90
24468;DHT22;12634;50.852;5.676;2023-06-10T01:31:24;16.80;99.90
24468;DHT22;12634;50.852;5.676;2023-06-10T01:34:00;16.80;99.90
24468;DHT22;12634;50.852;5.676;2023-06-10T01:36:32;16.70;99.90
24468;DHT22;12634;50.852;5.676;2023-06-10T01:39:01;16.60;99.90
24468;DHT22;12634;50.852;5.676;2023-06-10T01:41:29;16.70;99.90
24468;DHT22;12634;50.852;5.676;2023-06-10T01:43:56;16.60;99.90
24468;DHT22;12634;50.852;5.676;2023-06-10T01:46:23;16.40;99.90
24468;DHT22;12634;50.852;5.676;2023-06-10T01:48:50;16.30;99.90
24468;DHT22;12634;50.852;5.676;2023-06-10T01:51:18;16.30;99.90
24468;DHT22;12634;50.852;5.676;2023-06-10T01:53:46;16.20;99.90
24468;DHT22;12634;50.852;5.676;2023-06-10T01:56:13;16.20;99.90
24468;DHT22;12634;50.852;5.676;2023-06-10T01:58:44;16.00;99.90
24468;DHT22;12634;50.852;5.676;2023-06-10T02:01:11;15.90;99.90
24468;DHT22;12634;50.852;5.676;2023-06-10T02:03:39;15.90;99.90
24468;DHT22;12634;50.852;5.676;2023-06-10T02:06:06;15.80;99.90
24468;DHT22;12634;50.852;5.676;2023-06-10T02:08:34;15.80;99.90
24468;DHT22;12634;50.852;5.676;2023-06-10T02:11:02;15.80;99.90
24468;DHT22;12634;50.852;5.676;2023-06-10T02:13:29;15.90;99.90
24468;DHT22;12634;50.852;5.676;2023-06-10T02:15:56;15.80;99.90
24468;DHT22;12634;50.852;5.676;2023-06-10T02:18:23;15.80;99.90
24468;DHT22;12634;50.852;5.676;2023-06-10T02:20:52;15.80;99.90
24468;DHT22;12634;50.852;5.676;2023-06-10T02:23:19;15.80;99.90
24468;DHT22;12634;50.852;5.676;2023-06-10T02:25:47;16.00;99.90
24468;DHT22;12634;50.852;5.676;2023-06-10T02:28:15;16.00;99.90
24468;DHT22;12634;50.852;5.676;2023-06-10T02:30:43;16.20;99.90
24468;DHT22;12634;50.852;5.676;2023-06-10T02:33:10;16.10;99.90
24468;DHT22;12634;50.852;5.676;2023-06-10T02:35:38;16.00;99.90
24468;DHT22;12634;50.852;5.676;2023-06-10T02:38:05;16.00;99.90
24468;DHT22;12634;50.852;5.676;2023-06-10T02:40:32;16.20;99.90
24468;DHT22;12634;50.852;5.676;2023-06-10T02:42:59;16.20;99.90
24468;DHT22;12634;50.852;5.676;2023-06-10T02:45:28;16.10;99.90
24468;DHT22;12634;50.852;5.676;2023-06-10T02:47:55;16.10;99.90
24468;DHT22;12634;50.852;5.676;2023-06-10T02:50:22;15.90;99.90
24468;DHT22;12634;50.852;5.676;2023-06-10T02:52:49;15.90;99.90
24468;DHT22;12634;50.852;5.676;2023-06-10T02:55:16;16.10;99.90
24468;DHT22;12634;50.852;5.676;2023-06-10T02:57:43;16.00;99.90
24468;DHT22;12634;50.852;5.676;2023-06-10T03:00:11;15.90;99.90
24468;DHT22;12634;50.852;5.676;2023-06-10T03:02:41;16.00;99.90
24468;DHT22;12634;50.852;5.676;2023-06-10T03:05:08;16.00;99.90
24468;DHT22;12634;50.852;5.676;2023-06-10T03:07:36;15.90;99.90
24468;DHT22;12634;50.852;5.676;2023-06-10T03:10:05;15.80;99.90
24468;DHT22;12634;50.852;5.676;2023-06-10T03:12:32;15.70;99.90
24468;DHT22;12634;50.852;5.676;2023-06-10T03:14:59;15.80;99.90
24468;DHT22;12634;50.852;5.676;2023-06-10T03:17:26;15.70;99.90
24468;DHT22;12634;50.852;5.676;2023-06-10T03:19:55;15.50;99.90
24468;DHT22;12634;50.852;5.676;2023-06-10T03:22:22;15.40;99.90
24468;DHT22;12634;50.852;5.676;2023-06-10T03:24:49;15.40;99.90
24468;DHT22;12634;50.852;5.676;2023-06-10T03:27:17;15.30;99.90
24468;DHT22;12634;50.852;5.676;2023-06-10T03:29:44;15.30;99.90
24468;DHT22;12634;50.852;5.676;2023-06-10T03:32:11;15.60;99.90
24468;DHT22;12634;50.852;5.676;2023-06-10T03:34:38;15.60;99.90
24468;DHT22;12634;50.852;5.676;2023-06-10T03:37:07;15.60;99.90
24468;DHT22;12634;50.852;5.676;2023-06-10T03:39:34;15.60;99.90
24468;DHT22;12634;50.852;5.676;2023-06-10T03:42:01;15.60;99.90
24468;DHT22;12634;50.852;5.676;2023-06-10T03:44:29;15.50;99.90
24468;DHT22;12634;50.852;5.676;2023-06-10T03:46:56;15.50;99.90
24468;DHT22;12634;50.852;5.676;2023-06-10T03:49:23;15.50;99.90
24468;DHT22;12634;50.852;5.676;2023-06-10T03:51:52;15.40;99.90
24468;DHT22;12634;50.852;5.676;2023-06-10T03:54:21;15.60;99.90
24468;DHT22;12634;50.852;5.676;2023-06-10T03:56:48;15.70;99.90
24468;DHT22;12634;50.852;5.676;2023-06-10T03:59:16;15.70;99.90
24468;DHT22;12634;50.852;5.676;2023-06-10T04:01:43;15.70;99.90
24468;DHT22;12634;50.852;5.676;2023-06-10T04:04:13;15.70;99.90
24468;DHT22;12634;50.852;5.676;2023-06-10T04:06:40;15.70;99.90
24468;DHT22;12634;50.852;5.676;2023-06-10T04:09:09;15.70;99.90
24468;DHT22;12634;50.852;5.676;2023-06-10T04:11:38;15.90;99.90
24468;DHT22;12634;50.852;5.676;2023-06-10T04:14:05;15.90;99.90
24468;DHT22;12634;50.852;5.676;2023-06-10T04:16:32;16.00;99.90
24468;DHT22;12634;50.852;5.676;2023-06-10T04:18:59;16.20;99.90
24468;DHT22;12634;50.852;5.676;2023-06-10T04:21:27;16.30;99.90
24468;DHT22;12634;50.852;5.676;2023-06-10T04:23:54;16.50;99.90
24468;DHT22;12634;50.852;5.676;2023-06-10T04:26:21;16.60;99.90
24468;DHT22;12634;50.852;5.676;2023-06-10T04:28:50;16.60;99.90
24468;DHT22;12634;50.852;5.676;2023-06-10T04:31:17;16.70;99.90
24468;DHT22;12634;50.852;5.676;2023-06-10T04:33:45;17.00;99.90
24468;DHT22;12634;50.852;5.676;2023-06-10T04:36:12;17.10;99.90
24468;DHT22;12634;50.852;5.676;2023-06-10T04:38:40;17.20;99.90
24468;DHT22;12634;50.852;5.676;2023-06-10T04:41:07;17.30;99.90
24468;DHT22;12634;50.852;5.676;2023-06-10T04:43:34;17.40;99.90
24468;DHT22;12634;50.852;5.676;2023-06-10T04:46:03;17.40;99.90
24468;DHT22;12634;50.852;5.676;2023-06-10T04:48:30;17.50;99.90
24468;DHT22;12634;50.852;5.676;2023-06-10T04:50:58;17.50;99.90
24468;DHT22;12634;50.852;5.676;2023-06-10T04:53:25;17.50;99.90
24468;DHT22;12634;50.852;5.676;2023-06-10T04:55:54;17.60;99.90
24468;DHT22;12634;50.852;5.676;2023-06-10T04:58:21;17.60;99.90
24468;DHT22;12634;50.852;5.676;2023-06-10T05:00:48;17.70;99.90
24468;DHT22;12634;50.852;5.676;2023-06-10T05:03:17;17.70;99.90
24468;DHT22;12634;50.852;5.676;2023-06-10T05:05:44;17.80;99.90
24468;DHT22;12634;50.852;5.676;2023-06-10T05:08:11;18.00;99.90
24468;DHT22;12634;50.852;5.676;2023-06-10T05:10:38;18.60;99.90
24468;DHT22;12634;50.852;5.676;2023-06-10T05:13:05;19.20;99.90
24468;DHT22;12634;50.852;5.676;2023-06-10T05:15:33;19.40;99.90
24468;DHT22;12634;50.852;5.676;2023-06-10T05:18:00;19.50;99.90
24468;DHT22;12634;50.852;5.676;2023-06-10T05:20:29;19.70;99.90
24468;DHT22;12634;50.852;5.676;2023-06-10T05:22:56;20.10;99.90
24468;DHT22;12634;50.852;5.676;2023-06-10T05:25:25;20.50;99.90
24468;DHT22;12634;50.852;5.676;2023-06-10T05:27:52;20.70;99.90
24468;DHT22;12634;50.852;5.676;2023-06-10T05:30:19;20.90;99.90
24468;DHT22;12634;50.852;5.676;2023-06-10T05:32:47;21.10;99.90
24468;DHT22;12634;50.852;5.676;2023-06-10T05:35:14;21.10;99.90
24468;DHT22;12634;50.852;5.676;2023-06-10T05:37:43;21.60;99.90
24468;DHT22;12634;50.852;5.676;2023-06-10T05:40:11;22.30;99.90
24468;DHT22;12634;50.852;5.676;2023-06-10T05:42:38;22.50;99.90
24468;DHT22;12634;50.852;5.676;2023-06-10T05:45:06;22.50;99.90
24468;DHT22;12634;50.852;5.676;2023-06-10T05:47:33;22.20;99.90
24468;DHT22;12634;50.852;5.676;2023-06-10T05:50:01;22.00;99.90
24468;DHT22;12634;50.852;5.676;2023-06-10T05:52:28;21.80;99.90
24468;DHT22;12634;50.852;5.676;2023-06-10T05:54:56;21.60;99.90
24468;DHT22;12634;50.852;5.676;2023-06-10T05:57:25;21.50;99.90
24468;DHT22;12634;50.852;5.676;2023-06-10T05:59:52;21.50;99.90
24468;DHT22;12634;50.852;5.676;2023-06-10T06:02:19;21.50;99.90
24468;DHT22;12634;50.852;5.676;2023-06-10T06:04:46;21.70;99.90
24468;DHT22;12634;50.852;5.676;2023-06-10T06:07:13;22.20;99.90
24468;DHT22;12634;50.852;5.676;2023-06-10T06:09:41;23.10;99.90
24468;DHT22;12634;50.852;5.676;2023-06-10T06:12:09;23.80;99.90
24468;DHT22;12634;50.852;5.676;2023-06-10T06:14:38;24.50;99.90
24468;DHT22;12634;50.852;5.676;2023-06-10T06:17:06;24.90;99.90
24468;DHT22;12634;50.852;5.676;2023-06-10T06:19:33;25.40;99.90
24468;DHT22;12634;50.852;5.676;2023-06-10T06:22:00;25.50;99.90
24468;DHT22;12634;50.852;5.676;2023-06-10T06:24:28;25.50;99.90
24468;DHT22;12634;50.852;5.676;2023-06-10T06:26:55;26.50;99.90
24468;DHT22;12634;50.852;5.676;2023-06-10T06:29:23;26.70;99.90
24468;DHT22;12634;50.852;5.676;2023-06-10T06:31:51;27.30;99.90
24468;DHT22;12634;50.852;5.676;2023-06-10T06:34:18;27.50;99.90
24468;DHT22;12634;50.852;5.676;2023-06-10T06:36:45;27.40;99.90
24468;DHT22;12634;50.852;5.676;2023-06-10T06:39:12;27.70;99.90
24468;DHT22;12634;50.852;5.676;2023-06-10T06:41:39;27.90;99.90
24468;DHT22;12634;50.852;5.676;2023-06-10T06:44:06;27.70;99.90
24468;DHT22;12634;50.852;5.676;2023-06-10T06:46:35;27.70;99.90
24468;DHT22;12634;50.852;5.676;2023-06-10T06:49:02;27.70;99.90
24468;DHT22;12634;50.852;5.676;2023-06-10T06:51:29;27.70;99.90
24468;DHT22;12634;50.852;5.676;2023-06-10T06:53:57;27.60;99.90
24468;DHT22;12634;50.852;5.676;2023-06-10T06:56:24;27.60;99.90
24468;DHT22;12634;50.852;5.676;2023-06-10T06:58:52;27.60;99.90
24468;DHT22;12634;50.852;5.676;2023-06-10T07:01:19;28.10;99.90
24468;DHT22;12634;50.852;5.676;2023-06-10T07:03:48;28.40;99.90
24468;DHT22;12634;50.852;5.676;2023-06-10T07:06:15;28.70;99.90
24468;DHT22;12634;50.852;5.676;2023-06-10T07:08:43;29.20;99.90
24468;DHT22;12634;50.852;5.676;2023-06-10T07:11:10;29.70;99.90
24468;DHT22;12634;50.852;5.676;2023-06-10T07:13:37;29.80;99.90
24468;DHT22;12634;50.852;5.676;2023-06-10T07:16:04;30.20;99.90
24468;DHT22;12634;50.852;5.676;2023-06-10T07:18:31;29.30;99.90
24468;DHT22;12634;50.852;5.676;2023-06-10T07:21:00;29.40;99.90
24468;DHT22;12634;50.852;5.676;2023-06-10T07:23:27;29.30;99.90
24468;DHT22;12634;50.852;5.676;2023-06-10T07:25:54;29.50;99.90
24468;DHT22;12634;50.852;5.676;2023-06-10T07:28:21;29.70;99.90
24468;DHT22;12634;50.852;5.676;2023-06-10T07:30:48;29.60;99.90
24468;DHT22;12634;50.852;5.676;2023-06-10T07:33:16;29.90;99.90
24468;DHT22;12634;50.852;5.676;2023-06-10T07:35:43;30.50;99.90
24468;DHT22;12634;50.852;5.676;2023-06-10T07:38:11;30.20;99.90
24468;DHT22;12634;50.852;5.676;2023-06-10T07:40:39;29.60;99.90
24468;DHT22;12634;50.852;5.676;2023-06-10T07:43:06;29.70;99.90
24468;DHT22;12634;50.852;5.676;2023-06-10T07:45:33;29.90;99.90
24468;DHT22;12634;50.852;5.676;2023-06-10T07:48:00;30.10;99.90
24468;DHT22;12634;50.852;5.676;2023-06-10T07:50:27;30.60;99.90
24468;DHT22;12634;50.852;5.676;2023-06-10T07:52:55;30.80;99.90
24468;DHT22;12634;50.852;5.676;2023-06-10T07:55:23;30.90;99.90
24468;DHT22;12634;50.852;5.676;2023-06-10T07:57:51;30.90;99.90
24468;DHT22;12634;50.852;5.676;2023-06-10T08:00:19;30.80;99.90
24468;DHT22;12634;50.852;5.676;2023-06-10T08:02:46;31.00;99.90
24468;DHT22;12634;50.852;5.676;2023-06-10T08:05:14;30.80;99.40
24468;DHT22;12634;50.852;5.676;2023-06-10T08:07:41;30.90;99.90
24468;DHT22;12634;50.852;5.676;2023-06-10T08:10:09;31.40;99.60
24468;DHT22;12634;50.852;5.676;2023-06-10T08:12:37;32.10;98.40
24468;DHT22;12634;50.852;5.676;2023-06-10T08:15:06;31.70;97.00
24468;DHT22;12634;50.852;5.676;2023-06-10T08:17:33;31.10;99.70
24468;DHT22;12634;50.852;5.676;2023-06-10T08:20:00;31.00;99.90
24468;DHT22;12634;50.852;5.676;2023-06-10T08:22:28;31.20;99.90
24468;DHT22;12634;50.852;5.676;2023-06-10T08:24:55;31.30;98.70
24468;DHT22;12634;50.852;5.676;2023-06-10T08:27:23;31.60;99.90
24468;DHT22;12634;50.852;5.676;2023-06-10T08:29:52;32.10;96.60
24468;DHT22;12634;50.852;5.676;2023-06-10T08:32:19;31.90;98.30
24468;DHT22;12634;50.852;5.676;2023-06-10T08:34:46;32.00;98.50
24468;DHT22;12634;50.852;5.676;2023-06-10T08:37:13;32.00;99.10
24468;DHT22;12634;50.852;5.676;2023-06-10T08:39:40;31.60;95.80
24468;DHT22;12634;50.852;5.676;2023-06-10T08:42:19;31.40;97.80
24468;DHT22;12634;50.852;5.676;2023-06-10T08:44:49;31.30;96.80
24468;DHT22;12634;50.852;5.676;2023-06-10T08:47:22;31.70;98.70
24468;DHT22;12634;50.852;5.676;2023-06-10T08:49:51;31.90;94.70
24468;DHT22;12634;50.852;5.676;2023-06-10T08:52:20;31.90;96.90
24468;DHT22;12634;50.852;5.676;2023-06-10T08:54:52;31.50;95.50
24468;DHT22;12634;50.852;5.676;2023-06-10T08:57:19;31.90;95.60
24468;DHT22;12634;50.852;5.676;2023-06-10T08:59:47;31.90;97.30
24468;DHT22;12634;50.852;5.676;2023-06-10T09:02:15;32.00;94.80
24468;DHT22;12634;50.852;5.676;2023-06-10T09:04:47;32.00;97.90
24468;DHT22;12634;50.852;5.676;2023-06-10T09:07:16;32.10;93.50
24468;DHT22;12634;50.852;5.676;2023-06-10T09:09:44;32.00;98.50
24468;DHT22;12634;50.852;5.676;2023-06-10T09:12:13;32.60;96.60
24468;DHT22;12634;50.852;5.676;2023-06-10T09:14:41;32.20;92.90
24468;DHT22;12634;50.852;5.676;2023-06-10T09:17:09;32.20;96.80
24468;DHT22;12634;50.852;5.676;2023-06-10T09:19:37;33.00;95.60
24468;DHT22;12634;50.852;5.676;2023-06-10T09:22:06;32.90;94.60
24468;DHT22;12634;50.852;5.676;2023-06-10T09:24:34;33.10;96.50
24468;DHT22;12634;50.852;5.676;2023-06-10T09:27:05;33.30;96.20
24468;DHT22;12634;50.852;5.676;2023-06-10T09:29:45;33.40;93.20
24468;DHT22;12634;50.852;5.676;2023-06-10T09:32:13;33.10;93.10
24468;DHT22;12634;50.852;5.676;2023-06-10T09:34:43;33.10;92.10
24468;DHT22;12634;50.852;5.676;2023-06-10T09:37:13;33.10;90.40
24468;DHT22;12634;50.852;5.676;2023-06-10T09:39:40;32.60;91.20
24468;DHT22;12634;50.852;5.676;2023-06-10T09:42:16;33.20;93.90
24468;DHT22;12634;50.852;5.676;2023-06-10T09:44:49;33.10;92.70
24468;DHT22;12634;50.852;5.676;2023-06-10T09:47:20;33.60;95.60
24468;DHT22;12634;50.852;5.676;2023-06-10T09:49:48;33.60;91.90
24468;DHT22;12634;50.852;5.676;2023-06-10T09:52:21;33.10;93.60
24468;DHT22;12634;50.852;5.676;2023-06-10T09:54:50;33.80;95.50
24468;DHT22;12634;50.852;5.676;2023-06-10T09:57:18;33.70;91.30
24468;DHT22;12634;50.852;5.676;2023-06-10T09:59:45;32.80;90.30
24468;DHT22;12634;50.852;5.676;2023-06-10T10:02:16;33.30;88.60
24468;DHT22;12634;50.852;5.676;2023-06-10T10:04:43;33.20;90.40
24468;DHT22;12634;50.852;5.676;2023-06-10T10:07:11;33.40;91.50
24468;DHT22;12634;50.852;5.676;2023-06-10T10:09:41;33.40;94.10
24468;DHT22;12634;50.852;5.676;2023-06-10T10:12:10;33.50;85.60
24468;DHT22;12634;50.852;5.676;2023-06-10T10:14:38;33.10;91.40
24468;DHT22;12634;50.852;5.676;2023-06-10T10:17:09;33.20;91.30
24468;DHT22;12634;50.852;5.676;2023-06-10T10:19:46;33.30;94.10
24468;DHT22;12634;50.852;5.676;2023-06-10T10:22:20;33.50;85.70
24468;DHT22;12634;50.852;5.676;2023-06-10T10:24:53;33.30;90.00
24468;DHT22;12634;50.852;5.676;2023-06-10T10:27:27;32.70;93.10
24468;DHT22;12634;50.852;5.676;2023-06-10T10:29:55;33.40;95.00
24468;DHT22;12634;50.852;5.676;2023-06-10T10:32:32;33.80;92.60
24468;DHT22;12634;50.852;5.676;2023-06-10T10:35:06;33.80;86.30
24468;DHT22;12634;50.852;5.676;2023-06-10T10:37:35;33.90;87.40
24468;DHT22;12634;50.852;5.676;2023-06-10T10:40:04;33.80;82.80
24468;DHT22;12634;50.852;5.676;2023-06-10T10:42:33;33.50;86.70
24468;DHT22;12634;50.852;5.676;2023-06-10T10:45:01;33.40;90.70
24468;DHT22;12634;50.852;5.676;2023-06-10T10:47:31;33.30;84.70
24468;DHT22;12634;50.852;5.676;2023-06-10T10:50:00;33.30;91.10
24468;DHT22;12634;50.852;5.676;2023-06-10T10:52:52;33.40;93.90
24468;DHT22;12634;50.852;5.676;2023-06-10T10:55:22;33.70;83.50
24468;DHT22;12634;50.852;5.676;2023-06-10T10:57:57;33.10;90.00
24468;DHT22;12634;50.852;5.676;2023-06-10T11:00:30;33.20;91.90
24468;DHT22;12634;50.852;5.676;2023-06-10T11:02:59;33.80;93.50
24468;DHT22;12634;50.852;5.676;2023-06-10T11:05:37;33.50;83.60
24468;DHT22;12634;50.852;5.676;2023-06-10T11:08:05;33.40;85.40
24468;DHT22;12634;50.852;5.676;2023-06-10T11:10:36;34.00;92.50
24468;DHT22;12634;50.852;5.676;2023-06-10T11:13:08;34.00;85.90
24468;DHT22;12634;50.852;5.676;2023-06-10T11:15:40;33.80;77.70
24468;DHT22;12634;50.852;5.676;2023-06-10T11:20:59;34.00;80.50
24468;DHT22;12634;50.852;5.676;2023-06-10T11:23:39;33.90;82.50
24468;DHT22;12634;50.852;5.676;2023-06-10T11:26:16;33.70;80.90
24468;DHT22;12634;50.852;5.676;2023-06-10T11:29:07;34.40;84.40
24468;DHT22;12634;50.852;5.676;2023-06-10T11:31:45;34.20;86.30
24468;DHT22;12634;50.852;5.676;2023-06-10T11:34:13;33.70;78.50
24468;DHT22;12634;50.852;5.676;2023-06-10T11:36:41;34.20;82.00
24468;DHT22;12634;50.852;5.676;2023-06-10T11:39:11;34.00;81.70
24468;DHT22;12634;50.852;5.676;2023-06-10T11:41:40;34.60;90.30
24468;DHT22;12634;50.852;5.676;2023-06-10T11:44:09;34.60;74.20
24468;DHT22;12634;50.852;5.676;2023-06-10T11:46:36;34.20;85.80
24468;DHT22;12634;50.852;5.676;2023-06-10T11:49:04;34.30;92.60
24468;DHT22;12634;50.852;5.676;2023-06-10T11:51:33;34.50;81.20
24468;DHT22;12634;50.852;5.676;2023-06-10T11:54:01;34.10;84.30
24468;DHT22;12634;50.852;5.676;2023-06-10T11:56:30;34.30;76.70
24468;DHT22;12634;50.852;5.676;2023-06-10T11:59:00;33.50;73.60
24468;DHT22;12634;50.852;5.676;2023-06-10T12:01:30;33.50;77.80
24468;DHT22;12634;50.852;5.676;2023-06-10T12:04:02;34.00;86.10
24468;DHT22;12634;50.852;5.676;2023-06-10T12:06:38;34.40;81.60
24468;DHT22;12634;50.852;5.676;2023-06-10T12:09:06;34.10;71.80
24468;DHT22;12634;50.852;5.676;2023-06-10T12:11:34;33.60;72.60
24468;DHT22;12634;50.852;5.676;2023-06-10T12:14:03;33.50;82.30
24468;DHT22;12634;50.852;5.676;2023-06-10T12:16:30;33.50;72.60
24468;DHT22;12634;50.852;5.676;2023-06-10T12:19:02;33.50;84.40
24468;DHT22;12634;50.852;5.676;2023-06-10T12:21:30;34.10;82.40
24468;DHT22;12634;50.852;5.676;2023-06-10T12:24:06;34.10;69.40
24468;DHT22;12634;50.852;5.676;2023-06-10T12:26:35;34.00;72.10
24468;DHT22;12634;50.852;5.676;2023-06-10T12:29:20;33.90;77.50
24468;DHT22;12634;50.852;5.676;2023-06-10T12:32:01;34.40;71.70
24468;DHT22;12634;50.852;5.676;2023-06-10T12:34:33;34.10;68.40
24468;DHT22;12634;50.852;5.676;2023-06-10T12:37:01;34.00;70.20
24468;DHT22;12634;50.852;5.676;2023-06-10T12:39:30;33.20;68.50
24468;DHT22;12634;50.852;5.676;2023-06-10T12:41:57;33.50;77.00
24468;DHT22;12634;50.852;5.676;2023-06-10T12:44:33;33.10;70.20
24468;DHT22;12634;50.852;5.676;2023-06-10T12:47:06;32.50;73.50
24468;DHT22;12634;50.852;5.676;2023-06-10T12:49:34;32.60;73.00
24468;DHT22;12634;50.852;5.676;2023-06-10T12:52:02;33.30;76.70
24468;DHT22;12634;50.852;5.676;2023-06-10T12:54:29;33.80;73.50
24468;DHT22;12634;50.852;5.676;2023-06-10T12:56:56;34.40;69.30
24468;DHT22;12634;50.852;5.676;2023-06-10T12:59:23;34.70;68.70
24468;DHT22;12634;50.852;5.676;2023-06-10T13:01:52;34.80;73.70
24468;DHT22;12634;50.852;5.676;2023-06-10T13:04:20;35.00;71.20
24468;DHT22;12634;50.852;5.676;2023-06-10T13:06:48;35.10;71.10
24468;DHT22;12634;50.852;5.676;2023-06-10T13:09:16;35.10;65.10
24468;DHT22;12634;50.852;5.676;2023-06-10T13:11:43;35.10;73.10
24468;DHT22;12634;50.852;5.676;2023-06-10T13:14:10;35.10;68.60
24468;DHT22;12634;50.852;5.676;2023-06-10T13:16:38;35.60;70.60
24468;DHT22;12634;50.852;5.676;2023-06-10T13:19:06;34.20;59.60
24468;DHT22;12634;50.852;5.676;2023-06-10T13:21:33;34.30;61.70
24468;DHT22;12634;50.852;5.676;2023-06-10T13:24:01;33.70;61.10
24468;DHT22;12634;50.852;5.676;2023-06-10T13:26:29;33.80;64.70
24468;DHT22;12634;50.852;5.676;2023-06-10T13:28:56;34.40;67.90
24468;DHT22;12634;50.852;5.676;2023-06-10T13:31:23;34.60;62.30
24468;DHT22;12634;50.852;5.676;2023-06-10T13:33:50;34.40;62.90
24468;DHT22;12634;50.852;5.676;2023-06-10T13:36:19;34.70;64.70
24468;DHT22;12634;50.852;5.676;2023-06-10T13:38:46;34.90;60.00
24468;DHT22;12634;50.852;5.676;2023-06-10T13:41:14;35.30;61.20
24468;DHT22;12634;50.852;5.676;2023-06-10T13:43:41;35.50;72.50
24468;DHT22;12634;50.852;5.676;2023-06-10T13:46:08;35.50;60.40
24468;DHT22;12634;50.852;5.676;2023-06-10T13:48:36;35.30;61.80
24468;DHT22;12634;50.852;5.676;2023-06-10T13:51:03;35.30;66.90
24468;DHT22;12634;50.852;5.676;2023-06-10T13:53:31;35.50;59.70
24468;DHT22;12634;50.852;5.676;2023-06-10T13:56:00;35.00;66.50
24468;DHT22;12634;50.852;5.676;2023-06-10T13:58:27;35.60;63.60
24468;DHT22;12634;50.852;5.676;2023-06-10T14:00:54;35.90;64.50
24468;DHT22;12634;50.852;5.676;2023-06-10T14:03:21;35.10;65.40
24468;DHT22;12634;50.852;5.676;2023-06-10T14:05:49;34.90;57.00
24468;DHT22;12634;50.852;5.676;2023-06-10T14:08:16;34.80;59.60
24468;DHT22;12634;50.852;5.676;2023-06-10T14:10:45;34.50;59.00
24468;DHT22;12634;50.852;5.676;2023-06-10T14:13:12;35.10;61.70
24468;DHT22;12634;50.852;5.676;2023-06-10T14:15:40;34.90;60.30
24468;DHT22;12634;50.852;5.676;2023-06-10T14:18:07;35.10;67.10
24468;DHT22;12634;50.852;5.676;2023-06-10T14:20:34;34.50;59.80
24468;DHT22;12634;50.852;5.676;2023-06-10T14:23:02;35.00;66.30
24468;DHT22;12634;50.852;5.676;2023-06-10T14:25:29;35.40;61.50
24468;DHT22;12634;50.852;5.676;2023-06-10T14:27:57;35.50;66.70
24468;DHT22;12634;50.852;5.676;2023-06-10T14:30:24;36.10;68.70
24468;DHT22;12634;50.852;5.676;2023-06-10T14:32:52;36.30;71.10
24468;DHT22;12634;50.852;5.676;2023-06-10T14:35:19;36.70;60.60
24468;DHT22;12634;50.852;5.676;2023-06-10T14:37:47;36.40;61.10
24468;DHT22;12634;50.852;5.676;2023-06-10T14:40:14;36.40;63.20
24468;DHT22;12634;50.852;5.676;2023-06-10T14:42:41;35.90;65.60
24468;DHT22;12634;50.852;5.676;2023-06-10T14:45:10;35.80;70.70
24468;DHT22;12634;50.852;5.676;2023-06-10T14:47:37;35.50;74.40
24468;DHT22;12634;50.852;5.676;2023-06-10T14:50:05;35.60;72.60
24468;DHT22;12634;50.852;5.676;2023-06-10T14:52:32;35.60;68.80
24468;DHT22;12634;50.852;5.676;2023-06-10T14:54:59;34.80;72.70
24468;DHT22;12634;50.852;5.676;2023-06-10T14:57:26;34.70;69.70
24468;DHT22;12634;50.852;5.676;2023-06-10T14:59:53;34.90;75.60
24468;DHT22;12634;50.852;5.676;2023-06-10T15:02:23;35.10;78.00
24468;DHT22;12634;50.852;5.676;2023-06-10T15:04:51;35.80;72.90
24468;DHT22;12634;50.852;5.676;2023-06-10T15:07:18;35.30;69.50
24468;DHT22;12634;50.852;5.676;2023-06-10T15:09:45;35.40;71.80
24468;DHT22;12634;50.852;5.676;2023-06-10T15:12:12;34.90;71.70
24468;DHT22;12634;50.852;5.676;2023-06-10T15:14:39;35.10;68.50
24468;DHT22;12634;50.852;5.676;2023-06-10T15:17:06;34.20;71.30
24468;DHT22;12634;50.852;5.676;2023-06-10T15:19:35;34.60;73.80
24468;DHT22;12634;50.852;5.676;2023-06-10T15:22:02;34.90;68.20
24468;DHT22;12634;50.852;5.676;2023-06-10T15:24:30;35.00;69.90
24468;DHT22;12634;50.852;5.676;2023-06-10T15:26:57;34.30;65.10
24468;DHT22;12634;50.852;5.676;2023-06-10T15:29:24;34.00;71.00
24468;DHT22;12634;50.852;5.676;2023-06-10T15:31:51;34.50;67.30
24468;DHT22;12634;50.852;5.676;2023-06-10T15:34:18;34.80;62.70
24468;DHT22;12634;50.852;5.676;2023-06-10T15:36:47;33.90;62.90
24468;DHT22;12634;50.852;5.676;2023-06-10T15:39:14;34.10;66.00
24468;DHT22;12634;50.852;5.676;2023-06-10T15:41:41;34.20;63.70